Time;durP1;ratioP1;P1;durP2;ratioP2;P2;SDS_P1;SDS_P2;PMS_P1;PMS_P2;Temp;Humidity;BMP_temperature;BMP_pressure;BME280_temperature;BME280_humidity;BME280_pressure;Samples;Min_cycle;Max_cycle;Signal;HPM_P1;HPM_P2
2022/01/06 00:00:38;;;;;;;13.65;9.65;;;;;;;6.05;93.49;62623.25;4988515;28;20200;-78
2022/01/06 00:03:05;;;;;;;16.63;9.30;;;;;;;6.19;93.31;62637.16;4990997;28;20200;-79
2022/01/06 00:05:32;;;;;;;12.13;9.25;;;;;;;6.16;92.75;62631.56;5007207;28;20266;-80
2022/01/06 00:08:01;;;;;;;12.68;8.10;;;;;;;6.23;92.41;62639.25;5007938;28;20425;-78
2022/01/06 00:10:29;;;;;;;11.60;8.10;;;;;;;6.14;93.17;62635.06;5007590;28;20206;-78
2022/01/06 00:13:07;;;;;;;9.18;6.90;;;;;;;6.14;93.18;62632.00;5008334;28;20290;-79
2022/01/06 00:15:40;;;;;;;11.55;7.55;;;;;;;6.16;93.67;62634.06;5007468;28;20234;-78
2022/01/06 00:18:25;;;;;;;10.88;8.40;;;;;;;6.13;93.38;62631.50;5007244;28;20504;-79
2022/01/06 00:23:39;;;;;;;11.48;5.95;;;;;;;6.14;93.10;62627.47;5007949;28;20254;-78
2022/01/06 00:26:07;;;;;;;5.85;5.10;;;;;;;6.13;92.38;62628.44;5009772;28;20210;-78
2022/01/06 00:28:34;;;;;;;6.00;5.07;;;;;;;6.10;92.40;62622.81;5005992;28;20215;-80
2022/01/06 00:31:01;;;;;;;6.25;5.18;;;;;;;6.04;92.72;62621.72;5008669;28;20199;-79
2022/01/06 00:33:32;;;;;;;7.88;5.15;;;;;;;6.07;92.90;62624.78;5007083;28;20285;-79
2022/01/06 00:35:58;;;;;;;6.22;5.63;;;;;;;6.09;92.55;62629.38;5007289;28;20192;-78
2022/01/06 00:38:26;;;;;;;8.18;6.10;;;;;;;6.07;92.71;62627.31;5006395;28;20286;-78
2022/01/06 00:40:53;;;;;;;10.07;6.50;;;;;;;6.06;92.75;62621.75;5007109;28;20500;-77
2022/01/06 00:43:20;;;;;;;11.45;5.45;;;;;;;6.17;92.38;62633.09;5007360;28;20231;-77
2022/01/06 00:45:47;;;;;;;10.98;6.22;;;;;;;6.25;92.65;62645.88;5004861;28;20210;-78
2022/01/06 00:48:14;;;;;;;7.13;5.63;;;;;;;6.12;92.93;62633.00;5008615;28;20208;-78
2022/01/06 00:50:44;;;;;;;6.88;5.65;;;;;;;6.09;93.90;62626.84;5008012;28;20551;-78
2022/01/06 00:53:11;;;;;;;9.00;5.45;;;;;;;6.01;94.69;62616.59;5007432;28;20239;-79
2022/01/06 00:55:40;;;;;;;9.27;5.70;;;;;;;6.05;94.89;62618.19;5003262;28;20206;-79
2022/01/06 00:58:07;;;;;;;7.28;5.20;;;;;;;6.07;95.63;62624.78;4987386;28;20200;-78
2022/01/06 01:00:40;;;;;;;6.20;4.82;;;;;;;6.19;95.57;62642.22;4987635;28;20200;-79
2022/01/06 01:03:10;;;;;;;5.82;4.80;;;;;;;6.06;96.02;62619.22;4988982;28;20227;-78
2022/01/06 01:05:38;;;;;;;6.50;5.65;;;;;;;5.95;96.93;62615.47;5004514;28;20191;-79
2022/01/06 01:08:06;;;;;;;6.20;5.07;;;;;;;6.05;97.60;62625.25;5007206;28;20199;-78
2022/01/06 01:10:33;;;;;;;7.95;5.13;;;;;;;6.02;98.51;62620.16;5006813;28;20203;-79
2022/01/06 01:13:00;;;;;;;7.80;6.15;;;;;;;6.01;98.99;62619.13;5003787;28;20286;-77
2022/01/06 01:15:28;;;;;;;7.95;5.50;;;;;;;6.12;99.17;62629.94;5006334;28;20383;-78
2022/01/06 01:18:04;;;;;;;10.18;5.72;;;;;;;6.16;98.88;62631.56;5006431;28;20217;-77
2022/01/06 01:20:32;;;;;;;8.77;5.53;;;;;;;6.20;98.74;62635.66;5007251;28;20407;-77
2022/01/06 01:22:59;;;;;;;7.18;6.18;;;;;;;6.17;99.04;62635.63;5003950;28;20199;-79
2022/01/06 01:25:27;;;;;;;6.00;5.40;;;;;;;6.19;99.66;62634.63;5006041;28;20516;-78
2022/01/06 01:27:55;;;;;;;11.52;5.95;;;;;;;6.12;100.00;62627.94;5006287;28;20207;-79
2022/01/06 01:30:29;;;;;;;6.38;5.70;;;;;;;6.13;100.00;62634.03;5005659;28;20234;-78
2022/01/06 01:32:58;;;;;;;11.02;6.38;;;;;;;6.18;100.00;62634.13;5006579;28;20535;-78
2022/01/06 01:35:30;;;;;;;8.13;5.90;;;;;;;6.24;100.00;62640.31;5006658;28;20668;-78
2022/01/06 01:37:57;;;;;;;6.95;6.20;;;;;;;6.14;100.00;62627.47;5006333;28;20226;-78
2022/01/06 01:40:25;;;;;;;9.82;5.78;;;;;;;6.12;100.00;62627.41;5005218;28;20196;-79
2022/01/06 01:42:53;;;;;;;8.85;6.60;;;;;;;6.17;100.00;62637.63;5005074;28;20258;-80
2022/01/06 01:45:26;;;;;;;7.20;5.22;;;;;;;6.14;100.00;62629.47;5004436;28;20227;-79
2022/01/06 01:47:53;;;;;;;10.40;5.78;;;;;;;6.14;100.00;62635.06;5004768;28;20226;-79
2022/01/06 01:50:21;;;;;;;8.93;5.53;;;;;;;6.09;100.00;62626.84;5005613;28;20222;-78
2022/01/06 01:52:50;;;;;;;5.43;4.80;;;;;;;6.09;100.00;62626.84;5005828;28;20234;-79
2022/01/06 01:55:19;;;;;;;10.85;6.05;;;;;;;6.07;100.00;62624.78;5003230;28;20220;-79
2022/01/06 01:57:46;;;;;;;11.80;5.28;;;;;;;5.94;100.00;62611.41;5006754;28;20199;-79
2022/01/06 02:00:18;;;;;;;7.85;5.47;;;;;;;5.93;100.00;62605.81;5004900;28;20242;-78
2022/01/06 02:02:45;;;;;;;7.10;5.20;;;;;;;5.84;100.00;62599.06;5006821;28;20206;-79
2022/01/06 02:05:12;;;;;;;8.15;5.70;;;;;;;5.82;100.00;62597.00;5006523;28;20242;-78
2022/01/06 02:07:40;;;;;;;6.90;5.25;;;;;;;5.77;100.00;62597.41;5005393;28;20207;-79
2022/01/06 02:10:10;;;;;;;9.93;5.55;;;;;;;5.78;100.00;62597.94;5004061;28;20223;-78
2022/01/06 02:12:39;;;;;;;10.75;5.50;;;;;;;5.68;100.00;62585.09;5006358;28;20277;-79
2022/01/06 02:15:07;;;;;;;8.70;6.30;;;;;;;5.68;100.00;62588.13;5006673;28;20265;-77
2022/01/06 02:17:36;;;;;;;11.02;6.78;;;;;;;5.68;100.00;62585.59;5005339;28;20208;-78
2022/01/06 02:20:06;;;;;;;10.98;6.32;;;;;;;5.66;100.00;62583.53;5005873;28;20242;-79
2022/01/06 02:22:33;;;;;;;9.52;6.47;;;;;;;5.62;100.00;62576.91;5008988;28;20199;-77
2022/01/06 02:25:10;;;;;;;9.70;5.85;;;;;;;5.64;100.00;62584.00;5010269;28;20219;-78
2022/01/06 02:27:36;;;;;;;8.65;6.10;;;;;;;5.58;100.00;62574.78;5009010;28;20211;-79
2022/01/06 02:30:05;;;;;;;9.13;6.75;;;;;;;5.57;100.00;62571.75;5010634;28;20290;-78
2022/01/06 02:32:31;;;;;;;10.43;6.57;;;;;;;5.54;100.00;62566.13;5010489;28;20227;-78
2022/01/06 02:34:58;;;;;;;14.15;8.48;;;;;;;5.56;100.00;62570.72;5008117;28;20219;-79
2022/01/06 02:37:26;;;;;;;10.10;7.18;;;;;;;5.56;100.00;62570.19;5007463;28;20215;-80
2022/01/06 02:39:53;;;;;;;8.52;6.38;;;;;;;5.53;100.00;62567.13;5009979;28;20225;-78
2022/01/06 02:42:20;;;;;;;9.75;7.10;;;;;;;5.43;100.00;62559.88;5010359;28;20523;-79
2022/01/06 02:44:47;;;;;;;9.00;7.25;;;;;;;5.36;100.00;62549.59;5007281;28;20223;-78
2022/01/06 02:47:14;;;;;;;10.13;8.40;;;;;;;5.38;100.00;62549.16;5008558;28;20204;-79
2022/01/06 02:49:41;;;;;;;12.10;7.80;;;;;;;5.35;100.00;62551.09;5008577;28;20223;-78
2022/01/06 02:52:07;;;;;;;9.32;6.85;;;;;;;5.42;100.00;62555.78;5008740;28;20407;-77
2022/01/06 02:54:36;;;;;;;12.27;7.80;;;;;;;5.38;100.00;62556.72;5006591;28;20227;-78
2022/01/06 02:57:04;;;;;;;10.65;7.47;;;;;;;5.32;100.00;62548.00;4995569;28;20346;-79
2022/01/06 02:59:30;;;;;;;12.77;6.53;;;;;;;5.30;100.00;62545.94;4990065;28;20220;-78
2022/01/06 03:01:57;;;;;;;7.70;6.38;;;;;;;5.28;100.00;62543.91;4989378;28;20200;-78
2022/01/06 03:04:24;;;;;;;13.85;6.65;;;;;;;5.30;100.00;62545.94;5006362;28;20250;-78
2022/01/06 03:06:52;;;;;;;8.40;6.57;;;;;;;5.30;100.00;62545.94;5005198;28;20212;-77
2022/01/06 03:09:25;;;;;;;10.02;7.60;;;;;;;5.37;100.00;62553.66;4989166;28;20259;-79
2022/01/06 03:11:53;;;;;;;9.23;6.53;;;;;;;5.36;100.00;62552.66;4993644;28;20203;-78
2022/01/06 03:14:20;;;;;;;8.93;6.50;;;;;;;5.35;100.00;62549.09;5008502;28;20256;-78
2022/01/06 03:16:47;;;;;;;10.20;6.30;;;;;;;5.29;100.00;62545.44;5008299;28;20500;-77
2022/01/06 03:19:14;;;;;;;8.05;6.25;;;;;;;5.26;100.00;62541.84;5008616;28;20266;-78
2022/01/06 03:21:41;;;;;;;7.93;5.78;;;;;;;5.20;100.00;62533.63;5008703;28;20200;-79
2022/01/06 03:24:08;;;;;;;8.80;5.95;;;;;;;5.21;100.00;62534.66;5009284;28;20229;-78
2022/01/06 03:26:35;;;;;;;8.50;6.10;;;;;;;5.10;100.00;62525.88;5012345;28;20207;-77
2022/01/06 03:29:03;;;;;;;7.97;5.65;;;;;;;5.17;100.00;62533.06;5014302;28;20230;-77
2022/01/06 03:31:30;;;;;;;7.28;5.68;;;;;;;5.10;100.00;62525.88;5013094;28;20254;-78
2022/01/06 03:33:57;;;;;;;12.27;6.82;;;;;;;5.00;100.00;62515.56;5009732;28;20280;-78
2022/01/06 03:36:23;;;;;;;8.93;6.05;;;;;;;5.03;100.00;62521.19;5008606;28;20516;-78
2022/01/06 03:38:50;;;;;;;6.15;5.55;;;;;;;5.02;100.00;62517.13;5007151;28;20235;-78
2022/01/06 03:41:17;;;;;;;14.85;6.32;;;;;;;5.02;100.00;62514.59;5008120;28;20250;-78
2022/01/06 03:43:44;;;;;;;10.65;5.50;;;;;;;4.98;100.00;62513.00;5009218;28;20224;-79
2022/01/06 03:46:12;;;;;;;5.90;5.30;;;;;;;5.05;100.00;62520.19;5008560;28;20202;-78
2022/01/06 03:48:38;;;;;;;7.40;5.40;;;;;;;5.03;100.00;62518.66;5006422;28;20563;-78
2022/01/06 03:51:05;;;;;;;9.25;5.05;;;;;;;5.08;100.00;62521.28;5004539;28;20258;-79
2022/01/06 03:53:32;;;;;;;5.55;4.70;;;;;;;5.10;100.00;62520.31;5008515;28;20238;-79
2022/01/06 03:55:59;;;;;;;5.88;5.05;;;;;;;5.00;100.00;62512.53;5003703;28;20196;-77
2022/01/06 03:58:25;;;;;;;7.80;5.10;;;;;;;5.18;100.00;62534.09;4998263;28;20215;-79
2022/01/06 04:00:52;;;;;;;5.97;4.85;;;;;;;5.12;100.00;62527.94;5007934;28;20199;-78
2022/01/06 04:03:20;;;;;;;5.25;4.72;;;;;;;5.17;100.00;62530.56;5007604;28;20223;-79
2022/01/06 04:05:47;;;;;;;5.18;4.78;;;;;;;5.23;100.00;62538.75;5008697;28;20199;-79
2022/01/06 04:08:14;;;;;;;6.25;5.65;;;;;;;5.09;100.00;62521.81;5008178;28;20242;-80
2022/01/06 04:10:41;;;;;;;16.60;10.25;;;;;;;5.11;100.00;62524.38;5006796;28;20486;-79
2022/01/06 04:13:08;;;;;;;60.78;33.35;;;;;;;5.07;100.00;62522.78;5004053;28;20227;-78
2022/01/06 04:15:35;;;;;;;10.30;7.32;;;;;;;5.13;100.00;62528.44;5005583;28;20542;-78
2022/01/06 04:18:02;;;;;;;11.52;6.50;;;;;;;5.03;100.00;62520.66;5005586;28;20437;-79
2022/01/06 04:20:30;;;;;;;11.30;6.25;;;;;;;4.97;100.00;62512.47;5007414;28;20211;-79
2022/01/06 04:22:57;;;;;;;8.15;6.80;;;;;;;5.07;100.00;62517.72;5006722;28;20203;-78
2022/01/06 04:25:24;;;;;;;8.07;6.57;;;;;;;5.12;100.00;62532.97;5004825;28;20255;-79
2022/01/06 04:27:50;;;;;;;11.68;6.75;;;;;;;5.04;100.00;62517.16;5006907;28;20199;-78
2022/01/06 04:30:17;;;;;;;11.85;6.97;;;;;;;5.05;100.00;62518.19;5006293;28;20269;-78
2022/01/06 04:32:44;;;;;;;17.50;11.15;;;;;;;5.18;100.00;62533.56;5006453;28;20199;-78
2022/01/06 04:35:11;;;;;;;11.52;8.07;;;;;;;5.12;100.00;62525.41;5003937;28;20603;-78
2022/01/06 04:37:40;;;;;;;14.55;7.90;;;;;;;5.13;100.00;62528.94;5006138;28;20218;-77
2022/01/06 04:40:09;;;;;;;14.05;8.18;;;;;;;5.10;100.00;62525.88;5006478;28;20548;-78
2022/01/06 04:42:36;;;;;;;15.07;7.55;;;;;;;5.09;100.00;62527.34;5006884;28;20258;-78
2022/01/06 04:45:03;;;;;;;51.72;25.73;;;;;;;5.11;100.00;62521.84;5004888;28;20464;-79
2022/01/06 04:47:30;;;;;;;16.13;8.55;;;;;;;5.12;100.00;62529.94;5006755;28;20243;-77
2022/01/06 04:49:57;;;;;;;10.50;7.63;;;;;;;5.19;100.00;62534.63;5006696;28;20216;-79
2022/01/06 04:52:23;;;;;;;9.68;7.65;;;;;;;5.14;100.00;62526.94;5007392;28;20219;-78
2022/01/06 04:54:52;;;;;;;10.18;7.65;;;;;;;5.08;100.00;62520.75;5005844;28;20262;-78
2022/01/06 04:57:19;;;;;;;8.77;7.35;;;;;;;5.11;100.00;62521.84;4996306;28;20195;-78
2022/01/06 04:59:45;;;;;;;11.48;7.47;;;;;;;5.23;100.00;62538.75;5006888;28;20226;-78
2022/01/06 05:02:12;;;;;;;12.95;7.63;;;;;;;5.19;100.00;62534.63;5006465;28;20258;-79
2022/01/06 05:04:39;;;;;;;9.82;7.40;;;;;;;5.21;100.00;62537.19;5008149;28;20456;-79
2022/01/06 05:07:06;;;;;;;9.85;7.15;;;;;;;5.19;100.00;62532.63;5007813;28;20496;-79
2022/01/06 05:09:33;;;;;;;13.82;7.28;;;;;;;5.22;100.00;62535.69;5007605;28;20219;-78
2022/01/06 05:12:01;;;;;;;10.98;7.07;;;;;;;5.23;100.00;62541.28;4992787;28;20208;-78
2022/01/06 05:14:28;;;;;;;7.95;5.75;;;;;;;5.29;100.00;62545.44;4985960;28;20298;-78
2022/01/06 05:16:56;;;;;;;9.20;6.13;;;;;;;5.35;100.00;62549.09;4988532;28;20511;-78
2022/01/06 05:19:23;;;;;;;10.60;5.68;;;;;;;5.33;100.00;62544.50;5003768;28;20227;-78
2022/01/06 05:21:51;;;;;;;9.38;5.85;;;;;;;5.37;100.00;62550.63;5005694;28;20274;-79
2022/01/06 05:24:18;;;;;;;8.02;5.68;;;;;;;5.34;100.00;62547.53;5006087;28;20222;-78
2022/01/06 05:26:46;;;;;;;7.63;6.10;;;;;;;5.30;100.00;62543.41;5004050;28;20278;-77
2022/01/06 05:29:14;;;;;;;6.35;5.55;;;;;;;5.28;100.00;62536.31;5005613;28;20219;-78
2022/01/06 05:31:42;;;;;;;7.25;6.53;;;;;;;5.29;100.00;62542.91;5005395;28;20203;-79
2022/01/06 05:34:09;;;;;;;6.70;5.97;;;;;;;5.23;100.00;62539.25;5006696;28;20245;-79
2022/01/06 05:36:36;;;;;;;6.18;5.60;;;;;;;5.25;100.00;62541.31;5003796;28;20203;-80
2022/01/06 05:39:04;;;;;;;6.90;5.75;;;;;;;5.23;100.00;62539.25;5007633;28;20270;-80
2022/01/06 05:41:31;;;;;;;5.72;5.15;;;;;;;5.13;100.00;62526.44;5007929;28;20262;-79
2022/01/06 05:43:58;;;;;;;7.28;5.80;;;;;;;5.05;100.00;62520.19;5007055;28;20425;-79
2022/01/06 05:46:27;;;;;;;7.00;5.55;;;;;;;5.09;100.00;62524.31;5004329;28;20441;-79
2022/01/06 05:48:53;;;;;;;6.07;5.40;;;;;;;5.06;100.00;62521.75;5006326;28;20594;-79
2022/01/06 05:51:20;;;;;;;5.75;5.05;;;;;;;4.97;100.00;62512.47;5005909;28;20196;-79
2022/01/06 05:53:49;;;;;;;6.65;5.95;;;;;;;4.90;100.00;62504.75;5004431;28;20411;-79
2022/01/06 05:56:16;;;;;;;9.20;5.72;;;;;;;4.96;100.00;62511.44;5004976;28;20250;-79
2022/01/06 05:58:43;;;;;;;10.82;5.95;;;;;;;5.02;100.00;62517.13;5004910;28;20374;-77
2022/01/06 06:01:10;;;;;;;12.45;6.90;;;;;;;4.95;100.00;62505.38;5006663;28;20223;-78
2022/01/06 06:03:39;;;;;;;8.57;6.25;;;;;;;5.00;100.00;62513.06;5006108;28;20231;-78
2022/01/06 06:06:05;;;;;;;9.32;6.57;;;;;;;4.98;100.00;62508.47;5007415;28;20246;-79
2022/01/06 06:08:32;;;;;;;10.55;7.20;;;;;;;5.07;100.00;62522.78;5006436;28;20558;-80
2022/01/06 06:10:59;;;;;;;8.70;6.32;;;;;;;5.07;100.00;62522.78;5005901;28;20238;-79
2022/01/06 06:13:26;;;;;;;14.73;6.97;;;;;;;5.08;100.00;62523.81;5005886;28;20219;-78
2022/01/06 06:15:53;;;;;;;9.20;6.88;;;;;;;5.09;100.00;62524.31;5005762;28;20470;-79
2022/01/06 06:18:20;;;;;;;10.07;6.25;;;;;;;5.15;100.00;62525.97;5003917;28;20219;-79
2022/01/06 06:20:48;;;;;;;8.02;7.07;;;;;;;5.06;100.00;62524.25;5005755;28;20250;-80
2022/01/06 06:23:15;;;;;;;7.53;6.15;;;;;;;5.06;100.00;62521.22;5006334;28;20496;-79
2022/01/06 06:25:41;;;;;;;6.70;5.88;;;;;;;5.14;100.00;62527.47;5003926;28;20223;-80
2022/01/06 06:28:08;;;;;;;8.82;6.10;;;;;;;5.02;100.00;62517.13;5005614;28;20207;-78
2022/01/06 06:30:35;;;;;;;8.93;6.22;;;;;;;5.01;100.00;62514.06;5005656;28;20238;-79
2022/01/06 06:33:02;;;;;;;10.27;6.25;;;;;;;5.09;100.00;62519.28;5005966;28;20203;-79
2022/01/06 06:35:30;;;;;;;6.78;5.72;;;;;;;5.02;100.00;62517.13;5003713;28;20235;-80
2022/01/06 06:37:59;;;;;;;6.53;5.40;;;;;;;5.05;100.00;62520.72;5005235;28;20199;-80
2022/01/06 06:40:26;;;;;;;7.25;5.68;;;;;;;5.09;100.00;62519.78;5007133;28;20207;-81
2022/01/06 06:42:53;;;;;;;7.47;5.88;;;;;;;5.06;100.00;62521.22;5007628;28;20195;-82
2022/01/06 06:45:21;;;;;;;7.15;6.45;;;;;;;5.18;100.00;62528.53;5009767;28;20219;-83
2022/01/06 06:47:48;;;;;;;13.73;7.03;;;;;;;5.29;100.00;62540.38;5011633;28;20219;-82
2022/01/06 06:50:17;;;;;;;10.07;7.38;;;;;;;5.30;100.00;62546.47;5013056;28;20246;-81
2022/01/06 06:52:44;;;;;;;10.23;7.10;;;;;;;5.32;100.00;62548.53;5015752;28;20208;-82
2022/01/06 06:55:13;;;;;;;11.80;6.60;;;;;;;5.34;100.00;62548.06;5014578;28;20243;-82
2022/01/06 06:57:40;;;;;;;11.00;7.00;;;;;;;5.51;100.00;62565.06;5012667;28;20200;-81
2022/01/06 07:00:09;;;;;;;8.60;6.38;;;;;;;5.52;100.00;62566.59;5015213;28;20274;-81
2022/01/06 07:02:36;;;;;;;10.15;6.90;;;;;;;5.55;100.00;62574.75;5015309;28;20195;-82
2022/01/06 07:05:04;;;;;;;11.02;6.93;;;;;;;5.49;100.00;62565.50;5013268;28;20219;-82
2022/01/06 07:07:31;;;;;;;10.98;7.63;;;;;;;5.43;100.00;62559.88;5016324;28;20195;-82
2022/01/06 07:09:58;;;;;;;11.88;6.68;;;;;;;5.38;100.00;62552.19;5012716;28;20203;-83
2022/01/06 07:12:27;;;;;;;13.40;6.82;;;;;;;5.55;100.00;62569.19;5012532;28;20203;-82
2022/01/06 07:14:54;;;;;;;10.15;6.35;;;;;;;5.59;100.00;62573.81;5014791;28;20259;-84
2022/01/06 07:17:21;;;;;;;8.25;6.28;;;;;;;5.83;100.00;62596.03;5013462;28;20195;-82
2022/01/06 07:19:47;;;;;;;8.63;5.88;;;;;;;6.18;100.00;62634.13;5011805;28;20230;-83
2022/01/06 07:22:14;;;;;;;10.02;6.45;;;;;;;6.42;100.00;62663.41;5005780;28;20239;-81
2022/01/06 07:24:41;;;;;;;12.73;6.55;;;;;;;6.62;100.00;62678.97;5004859;28;20301;-82
2022/01/06 07:27:08;;;;;;;6.00;5.35;;;;;;;6.86;100.00;62701.72;5014330;28;20219;-82
2022/01/06 07:29:37;;;;;;;9.63;6.63;;;;;;;7.04;100.00;62724.81;5015649;28;20245;-82
2022/01/06 07:32:04;;;;;;;7.57;6.22;;;;;;;7.17;100.00;62737.72;5012750;28;20218;-82
2022/01/06 07:34:31;;;;;;;12.60;7.00;;;;;;;7.26;100.00;62745.00;5013755;28;20250;-81
2022/01/06 07:36:59;;;;;;;8.85;5.72;;;;;;;7.26;98.57;62745.00;5012327;28;20226;-81
2022/01/06 07:39:26;;;;;;;11.82;7.40;;;;;;;7.28;98.92;62747.06;5016910;28;20215;-81
2022/01/06 07:41:56;;;;;;;9.38;7.07;;;;;;;7.36;98.64;62757.31;5012692;28;20223;-80
2022/01/06 07:44:23;;;;;;;13.13;7.20;;;;;;;7.37;98.61;62756.34;5010195;28;20229;-82
2022/01/06 07:46:52;;;;;;;13.43;7.75;;;;;;;7.35;98.36;62756.81;5012659;28;20231;-80
2022/01/06 07:49:20;;;;;;;9.05;6.38;;;;;;;7.35;98.69;62753.75;5012609;28;20230;-82
2022/01/06 07:51:55;;;;;;;13.57;6.85;;;;;;;7.32;98.65;62748.13;5013127;28;20199;-83
2022/01/06 07:54:38;;;;;;;13.68;7.75;;;;;;;7.28;99.25;62747.06;5012391;28;20355;-82
2022/01/06 07:57:06;;;;;;;13.45;7.95;;;;;;;7.54;98.27;62775.91;5007639;28;20253;-82
2022/01/06 07:59:34;;;;;;;10.27;8.18;;;;;;;7.54;98.65;62775.91;5013573;28;20241;-80
2022/01/06 08:02:02;;;;;;;11.20;7.55;;;;;;;7.51;98.06;62770.25;5011098;28;20208;-79
2022/01/06 08:04:29;;;;;;;12.45;7.03;;;;;;;7.43;98.03;62765.06;5006923;28;20233;-78
2022/01/06 08:06:56;;;;;;;13.88;7.88;;;;;;;7.30;98.83;62754.19;5003696;28;20208;-79
2022/01/06 08:09:23;;;;;;;13.65;8.65;;;;;;;7.39;98.27;62760.94;5002044;28;20258;-78
2022/01/06 08:11:49;;;;;;;12.88;7.20;;;;;;;7.44;98.02;62763.06;5008774;28;20439;-78
2022/01/06 08:14:16;;;;;;;8.18;5.93;;;;;;;7.46;97.71;62768.16;5008283;28;20301;-78
2022/01/06 08:16:43;;;;;;;11.55;7.38;;;;;;;7.54;97.85;62776.41;5004103;28;20203;-79
2022/01/06 08:19:12;;;;;;;11.10;6.45;;;;;;;7.57;96.99;62777.00;5006042;28;20287;-78
2022/01/06 08:21:39;;;;;;;9.13;7.28;;;;;;;7.57;96.12;62771.91;5008308;28;20218;-78
2022/01/06 08:24:06;;;;;;;12.77;6.60;;;;;;;7.59;97.22;62781.06;5007192;28;20273;-79
2022/01/06 08:26:33;;;;;;;10.93;7.03;;;;;;;7.71;97.35;62793.47;5007004;28;20219;-79
2022/01/06 08:29:00;;;;;;;8.48;6.38;;;;;;;7.60;96.80;62787.69;5007373;28;20223;-78
2022/01/06 08:31:27;;;;;;;12.38;7.03;;;;;;;7.80;96.77;62803.25;5007635;28;20246;-78
2022/01/06 08:33:54;;;;;;;11.25;7.45;;;;;;;7.81;96.41;62803.78;5007656;28;20536;-78
2022/01/06 08:36:22;;;;;;;11.85;9.00;;;;;;;7.78;97.25;62796.13;5003550;28;20484;-79
2022/01/06 08:38:49;;;;;;;16.10;8.30;;;;;;;8.04;96.78;62830.56;4999279;28;20216;-77
2022/01/06 08:41:15;;;;;;;10.30;8.15;;;;;;;8.10;95.07;62834.25;5006901;28;20210;-78
2022/01/06 08:43:42;;;;;;;11.10;7.65;;;;;;;8.17;93.32;62840.94;5008058;28;20283;-79
2022/01/06 08:46:09;;;;;;;16.80;8.50;;;;;;;8.34;92.55;62855.47;5006282;28;20214;-78
2022/01/06 08:48:36;;;;;;;10.90;7.75;;;;;;;8.51;91.12;62873.03;5007436;28;20223;-79
2022/01/06 08:51:03;;;;;;;8.95;6.63;;;;;;;8.63;90.27;62885.44;5008188;28;20519;-78
2022/01/06 08:53:31;;;;;;;7.50;4.82;;;;;;;8.70;83.11;62897.72;5006518;28;20405;-78
2022/01/06 08:55:58;;;;;;;8.95;7.07;;;;;;;8.93;86.90;62922.03;5007244;28;20270;-77
2022/01/06 08:58:24;;;;;;;17.13;7.35;;;;;;;9.01;86.96;62922.69;5007736;28;20535;-78
2022/01/06 09:00:51;;;;;;;11.77;6.93;;;;;;;9.11;85.87;62935.03;5007133;28;20203;-78
2022/01/06 09:03:18;;;;;;;13.93;8.43;;;;;;;9.06;85.77;62929.88;5006094;28;20225;-79
2022/01/06 09:05:44;;;;;;;10.77;6.50;;;;;;;9.27;84.59;62954.09;5007424;28;20192;-78
2022/01/06 09:08:11;;;;;;;7.07;6.22;;;;;;;9.30;80.04;62957.72;5006028;28;20458;-78
2022/01/06 09:10:40;;;;;;;10.57;6.15;;;;;;;9.43;77.10;62975.75;5006683;28;20214;-79
2022/01/06 09:13:07;;;;;;;12.50;6.63;;;;;;;9.59;77.04;62987.22;5006652;28;20214;-78
2022/01/06 09:15:34;;;;;;;9.35;6.82;;;;;;;9.53;78.13;62981.00;5006282;28;20231;-79
2022/01/06 09:18:00;;;;;;;10.85;6.97;;;;;;;9.67;77.15;62992.41;5007256;28;20516;-78
2022/01/06 09:20:29;;;;;;;10.10;7.25;;;;;;;9.78;77.82;63006.84;5006137;28;20206;-78
2022/01/06 09:22:56;;;;;;;12.85;7.90;;;;;;;9.71;77.52;62996.56;5004001;28;20259;-79
2022/01/06 09:25:24;;;;;;;10.10;8.00;;;;;;;9.63;79.43;62993.38;5002108;28;20226;-78
2022/01/06 09:27:53;;;;;;;11.48;8.60;;;;;;;9.68;80.75;62999.03;4994914;28;20208;-78
2022/01/06 09:30:23;;;;;;;13.15;8.20;;;;;;;9.76;77.66;63004.78;4993852;28;20219;-79
2022/01/06 09:32:50;;;;;;;15.00;8.88;;;;;;;9.93;78.20;63022.38;5008124;28;20203;-79
2022/01/06 09:35:18;;;;;;;11.57;8.15;;;;;;;10.07;76.21;63039.41;5007262;28;20551;-79
2022/01/06 09:37:44;;;;;;;21.05;9.27;;;;;;;9.95;76.25;63019.34;5001799;28;20207;-79
2022/01/06 09:40:12;;;;;;;14.88;9.27;;;;;;;10.16;75.98;63043.63;4988250;28;20216;-79
2022/01/06 09:42:41;;;;;;;14.25;8.18;;;;;;;10.07;74.20;63033.78;4991638;28;20213;-79
2022/01/06 09:45:11;;;;;;;12.82;8.52;;;;;;;10.13;75.38;63045.63;5002431;28;20227;-78
2022/01/06 09:47:39;;;;;;;13.05;8.75;;;;;;;10.39;75.47;63066.91;5007145;28;20199;-79
2022/01/06 09:50:08;;;;;;;12.00;8.23;;;;;;;10.40;73.39;63067.97;5005952;28;20250;-79
2022/01/06 09:52:36;;;;;;;14.18;8.15;;;;;;;10.69;72.72;63100.00;5005607;28;20464;-79
2022/01/06 09:55:03;;;;;;;13.60;8.27;;;;;;;10.85;71.78;63112.00;5007026;28;20464;-80
2022/01/06 09:57:30;;;;;;;8.70;7.35;;;;;;;11.08;69.02;63140.88;5007233;28;20200;-79
2022/01/06 09:59:57;;;;;;;14.30;6.93;;;;;;;11.12;66.64;63142.47;5006789;28;20261;-80
2022/01/06 10:02:34;;;;;;;14.13;7.03;;;;;;;11.24;67.65;63151.84;5005835;28;20230;-80
2022/01/06 10:05:02;;;;;;;11.95;7.00;;;;;;;11.49;65.52;63182.84;4993474;28;20222;-80
2022/01/06 10:07:36;;;;;;;8.18;5.90;;;;;;;11.68;63.77;63199.47;5004203;28;20203;-78
2022/01/06 10:10:07;;;;;;;9.82;6.88;;;;;;;11.62;64.73;63196.81;5005710;28;20265;-79
2022/01/06 10:12:38;;;;;;;12.88;8.10;;;;;;;11.76;65.90;63205.72;5008471;28;20222;-78
2022/01/06 10:15:16;;;;;;;10.02;7.13;;;;;;;12.03;63.37;63236.25;5007881;28;20239;-78
2022/01/06 10:17:45;;;;;;;12.45;6.63;;;;;;;12.19;63.36;63254.88;5005811;28;20514;-79
2022/01/06 10:20:14;;;;;;;14.10;7.35;;;;;;;12.31;61.63;63267.81;5007085;28;20540;-80
2022/01/06 10:22:46;;;;;;;12.55;6.80;;;;;;;12.44;61.12;63285.91;5004695;28;20211;-79
2022/01/06 10:25:14;;;;;;;11.23;8.38;;;;;;;12.58;61.70;63297.88;5003992;28;20291;-78
2022/01/06 10:27:42;;;;;;;13.30;10.43;;;;;;;12.36;58.67;63273.00;5005510;28;20236;-78
2022/01/06 10:30:13;;;;;;;15.70;9.32;;;;;;;12.33;60.19;63266.81;5004993;28;20220;-80
2022/01/06 10:32:40;;;;;;;8.90;6.50;;;;;;;12.53;57.91;63290.63;5006417;28;20234;-79
2022/01/06 10:35:10;;;;;;;12.10;7.50;;;;;;;12.50;58.04;63287.53;5002749;28;20291;-79
2022/01/06 10:37:42;;;;;;;11.70;7.40;;;;;;;12.68;58.90;63306.19;4986696;28;20572;-79
2022/01/06 10:40:10;;;;;;;10.95;6.65;;;;;;;12.87;58.86;63322.81;4987110;28;20262;-78
2022/01/06 10:42:39;;;;;;;11.55;6.82;;;;;;;12.88;57.65;63326.41;4999858;28;20207;-78
2022/01/06 10:45:09;;;;;;;12.32;6.72;;;;;;;12.79;57.52;63317.59;5009135;28;20227;-78
2022/01/06 10:47:38;;;;;;;10.32;6.72;;;;;;;12.95;57.95;63336.22;5000837;28;20235;-79
2022/01/06 10:50:15;;;;;;;10.48;6.47;;;;;;;12.81;57.77;63319.16;5011561;28;20319;-79
2022/01/06 10:52:45;;;;;;;7.93;5.22;;;;;;;12.89;56.66;63324.38;5008901;28;20199;-79
2022/01/06 10:55:15;;;;;;;11.05;5.53;;;;;;;13.07;54.68;63343.06;5008698;28;20223;-79
2022/01/06 10:57:55;;;;;;;8.15;5.13;;;;;;;13.22;55.31;63361.19;5009570;28;20195;-79
2022/01/06 11:00:25;;;;;;;19.33;5.68;;;;;;;13.32;55.14;63374.63;5007934;28;20225;-80
2022/01/06 11:02:52;;;;;;;8.90;5.40;;;;;;;13.45;54.14;63385.56;5010284;28;20214;-80
2022/01/06 11:05:21;;;;;;;4.03;3.72;;;;;;;13.56;52.77;63394.41;5009804;28;20246;-79
2022/01/06 11:07:48;;;;;;;14.73;5.82;;;;;;;13.61;53.32;63404.72;5004371;28;20200;-79
2022/01/06 11:10:21;;;;;;;20.98;6.53;;;;;;;13.22;54.56;63361.19;5008408;28;20224;-78
2022/01/06 11:12:49;;;;;;;14.55;4.90;;;;;;;13.37;53.44;63377.25;5008487;28;20207;-78
2022/01/06 11:15:19;;;;;;;5.40;4.90;;;;;;;13.40;53.54;63384.97;5009565;28;20248;-79
2022/01/06 11:17:48;;;;;;;9.10;3.97;;;;;;;13.59;50.85;63399.56;5007012;28;20203;-79
2022/01/06 11:20:22;;;;;;;4.80;4.15;;;;;;;13.80;50.55;63418.81;5009176;28;20223;-78
2022/01/06 11:22:52;;;;;;;5.95;4.60;;;;;;;13.80;51.56;63418.81;5005491;28;20210;-79
2022/01/06 11:25:30;;;;;;;9.77;3.92;;;;;;;13.98;50.25;63437.47;5005009;28;20214;-79
2022/01/06 11:28:02;;;;;;;3.92;3.63;;;;;;;14.06;47.10;63445.28;5008050;28;20203;-78
2022/01/06 11:30:40;;;;;;;8.65;3.45;;;;;;;14.25;47.03;63468.09;5005910;28;20200;-78
2022/01/06 11:33:07;;;;;;;6.38;3.60;;;;;;;14.38;46.63;63484.16;5011138;28;20211;-77
2022/01/06 11:35:48;;;;;;;6.15;3.60;;;;;;;14.43;47.17;63486.78;5011210;28;20227;-77
2022/01/06 11:38:19;;;;;;;6.10;3.55;;;;;;;14.43;47.13;63481.66;5010456;28;20535;-80